DLH276 HECA-EDDF
Flight info
| Callsign | DLH276 |
|---|---|
| Flight time | N/A |
| Altitude | 40000 |
| Route | MENKU L617 NOZ L551 ANTAR DCT RIGRO DCT FSK UL608 DISOR DCT LONTA UL608 DOLEV DCT LURID DCT ZAG DCT BEDOX DCT SIMBA DCT AKINI T161 DEBHI DEBHI1C |
| Aircraft | A388/J-SADE2E3FGHIJ3J4J5M1RWXY/LB1D1 |
Departure
| Time | 2026-05-01 13:07 |
|---|---|
| Airport | Cairo International Airport (HECA) |
Arrival
| Time | N/A |
|---|---|
| Airport | Frankfurt Main Airport (EDDF) |
| Time | Latitude | Longitude | Altitude | Speed | Heading |
|---|---|---|---|---|---|
| 2026-05-01 12:40 | 30.11244 | 31.40228 | 379 ft | 0 kts | 196° |
| 2026-05-01 12:53 | 30.11249 | 31.40230 | 379 ft | 1 kts | 196° |
| 2026-05-01 12:53 | 30.11256 | 31.40232 | 379 ft | 1 kts | 196° |
| 2026-05-01 12:54 | 30.11263 | 31.40234 | 379 ft | 1 kts | 196° |
| 2026-05-01 12:54 | 30.11276 | 31.40237 | 379 ft | 1 kts | 186° |
| 2026-05-01 12:54 | 30.11284 | 31.40237 | 379 ft | 1 kts | 176° |
| 2026-05-01 12:55 | 30.11297 | 31.40233 | 379 ft | 1 kts | 161° |
| 2026-05-01 12:55 | 30.11303 | 31.40231 | 379 ft | 1 kts | 156° |
| 2026-05-01 12:55 | 30.11309 | 31.40227 | 379 ft | 0 kts | 150° |
| 2026-05-01 12:56 | 30.11307 | 31.40228 | 379 ft | 0 kts | 152° |
| 2026-05-01 12:57 | 30.11273 | 31.40362 | 379 ft | 13 kts | 106° |
| 2026-05-01 12:57 | 30.11205 | 31.40452 | 379 ft | 17 kts | 140° |
| 2026-05-01 12:58 | 30.11117 | 31.40538 | 379 ft | 17 kts | 139° |
| 2026-05-01 12:58 | 30.11036 | 31.40616 | 379 ft | 11 kts | 155° |
| 2026-05-01 12:58 | 30.10965 | 31.40592 | 379 ft | 12 kts | 227° |
| 2026-05-01 12:59 | 30.10834 | 31.40424 | 379 ft | 15 kts | 231° |
| 2026-05-01 12:59 | 30.10766 | 31.40329 | 379 ft | 11 kts | 227° |
| 2026-05-01 12:59 | 30.10633 | 31.40308 | 379 ft | 10 kts | 216° |
| 2026-05-01 13:00 | 30.10520 | 31.40164 | 379 ft | 14 kts | 228° |
| 2026-05-01 13:00 | 30.10448 | 31.40122 | 379 ft | 12 kts | 171° |
| 2026-05-01 13:01 | 30.10253 | 31.40297 | 379 ft | 26 kts | 139° |
| 2026-05-01 13:01 | 30.10115 | 31.40434 | 379 ft | 27 kts | 139° |
| 2026-05-01 13:01 | 30.09830 | 31.40716 | 379 ft | 24 kts | 139° |
| 2026-05-01 13:02 | 30.09786 | 31.40843 | 379 ft | 17 kts | 80° |
| 2026-05-01 13:07 | 30.17856 | 31.49867 | 3584 ft | 213 kts | 329° |
| 2026-05-01 13:07 | 30.18959 | 31.48623 | 4005 ft | 236 kts | 303° |
| 2026-05-01 13:07 | 30.19810 | 31.46895 | 4489 ft | 258 kts | 300° |
| 2026-05-01 13:08 | 30.20767 | 31.45107 | 5267 ft | 264 kts | 305° |
| 2026-05-01 13:08 | 30.21856 | 31.43411 | 6232 ft | 264 kts | 309° |
| 2026-05-01 13:08 | 30.23037 | 31.41781 | 7119 ft | 266 kts | 311° |
| 2026-05-01 13:08 | 30.24271 | 31.40174 | 8023 ft | 266 kts | 311° |
| 2026-05-01 13:09 | 30.25526 | 31.38576 | 8890 ft | 270 kts | 311° |
| 2026-05-01 13:09 | 30.26791 | 31.36968 | 9819 ft | 272 kts | 311° |
| 2026-05-01 13:09 | 30.28082 | 31.35325 | 10422 ft | 283 kts | 310° |
| 2026-05-01 13:09 | 30.29452 | 31.33576 | 10673 ft | 305 kts | 310° |
| 2026-05-01 13:10 | 30.30923 | 31.31691 | 10989 ft | 322 kts | 310° |
| 2026-05-01 13:10 | 30.32429 | 31.29763 | 11754 ft | 323 kts | 310° |
| 2026-05-01 13:10 | 30.33874 | 31.27915 | 12469 ft | 325 kts | 310° |
| 2026-05-01 13:10 | 30.35455 | 31.25891 | 13293 ft | 326 kts | 310° |
| 2026-05-01 13:11 | 30.36981 | 31.23936 | 13975 ft | 329 kts | 309° |
| 2026-05-01 13:11 | 30.38523 | 31.21955 | 14558 ft | 333 kts | 309° |
| 2026-05-01 13:11 | 30.40083 | 31.19950 | 15187 ft | 337 kts | 309° |
| 2026-05-01 13:11 | 30.41665 | 31.17916 | 15804 ft | 340 kts | 310° |
| 2026-05-01 13:12 | 30.43256 | 31.15872 | 16408 ft | 344 kts | 310° |
| 2026-05-01 13:12 | 30.44871 | 31.13795 | 17014 ft | 348 kts | 310° |
| 2026-05-01 13:12 | 30.46499 | 31.11701 | 17596 ft | 351 kts | 310° |
| 2026-05-01 13:12 | 30.48145 | 31.09585 | 18170 ft | 355 kts | 310° |
| 2026-05-01 13:13 | 30.49803 | 31.07450 | 18685 ft | 358 kts | 310° |
| 2026-05-01 13:13 | 30.51473 | 31.05300 | 19212 ft | 360 kts | 310° |
| 2026-05-01 13:13 | 30.53155 | 31.03130 | 19699 ft | 362 kts | 310° |
| 2026-05-01 13:13 | 30.54847 | 31.00948 | 20213 ft | 365 kts | 310° |
| 2026-05-01 13:14 | 30.56549 | 30.98750 | 20707 ft | 368 kts | 310° |
| 2026-05-01 13:14 | 30.58261 | 30.96540 | 21215 ft | 370 kts | 310° |
| 2026-05-01 13:14 | 30.59987 | 30.94309 | 21719 ft | 372 kts | 310° |
| 2026-05-01 13:14 | 30.61722 | 30.92065 | 22207 ft | 375 kts | 310° |
| 2026-05-01 13:15 | 30.63469 | 30.89805 | 22682 ft | 377 kts | 310° |
| 2026-05-01 13:15 | 30.65227 | 30.87529 | 23165 ft | 380 kts | 310° |
| 2026-05-01 13:15 | 30.66996 | 30.85238 | 23617 ft | 382 kts | 310° |
| 2026-05-01 13:15 | 30.68770 | 30.82939 | 24042 ft | 384 kts | 309° |
| 2026-05-01 13:16 | 30.70559 | 30.80619 | 24465 ft | 385 kts | 309° |
| 2026-05-01 13:16 | 30.72349 | 30.78297 | 24879 ft | 387 kts | 309° |
| 2026-05-01 13:16 | 30.74152 | 30.75956 | 25327 ft | 389 kts | 309° |
| 2026-05-01 13:17 | 30.79603 | 30.68870 | 26720 ft | 395 kts | 309° |
| 2026-05-01 13:17 | 30.81438 | 30.66481 | 27223 ft | 397 kts | 309° |
| 2026-05-01 13:18 | 30.85119 | 30.61686 | 28205 ft | 402 kts | 309° |
| 2026-05-01 13:18 | 30.87011 | 30.59219 | 28701 ft | 405 kts | 309° |
| 2026-05-01 13:18 | 30.88867 | 30.56797 | 29207 ft | 407 kts | 309° |
| 2026-05-01 13:18 | 30.90782 | 30.54297 | 29722 ft | 410 kts | 309° |
| 2026-05-01 13:19 | 30.92687 | 30.51807 | 30189 ft | 413 kts | 309° |
| 2026-05-01 13:19 | 30.94599 | 30.49308 | 30704 ft | 413 kts | 309° |
| 2026-05-01 13:19 | 30.98427 | 30.44298 | 31711 ft | 415 kts | 309° |
| 2026-05-01 13:20 | 31.00349 | 30.41781 | 32171 ft | 416 kts | 309° |
| 2026-05-01 13:20 | 31.02249 | 30.39291 | 32646 ft | 417 kts | 309° |
| 2026-05-01 13:20 | 31.04176 | 30.36764 | 33260 ft | 416 kts | 309° |
| 2026-05-01 13:21 | 31.07813 | 30.31502 | 34120 ft | 418 kts | 302° |
| 2026-05-01 13:21 | 31.09267 | 30.28570 | 34486 ft | 419 kts | 296° |
| 2026-05-01 13:21 | 31.10449 | 30.25448 | 34911 ft | 420 kts | 291° |
| 2026-05-01 13:21 | 31.11356 | 30.22221 | 35410 ft | 419 kts | 288° |
| 2026-05-01 13:22 | 31.12231 | 30.18986 | 35934 ft | 417 kts | 289° |
| 2026-05-01 13:22 | 31.13119 | 30.15758 | 36450 ft | 416 kts | 289° |
| 2026-05-01 13:22 | 31.13999 | 30.12556 | 36975 ft | 414 kts | 288° |
| 2026-05-01 13:22 | 31.14874 | 30.09359 | 37530 ft | 411 kts | 288° |
| 2026-05-01 13:23 | 31.15740 | 30.06185 | 38090 ft | 409 kts | 288° |
| 2026-05-01 13:23 | 31.16613 | 30.03040 | 38541 ft | 408 kts | 291° |
| 2026-05-01 13:23 | 31.17779 | 30.00022 | 38938 ft | 407 kts | 298° |
| 2026-05-01 13:23 | 31.19306 | 29.97243 | 39308 ft | 408 kts | 304° |
| 2026-05-01 13:24 | 31.21165 | 29.94728 | 39657 ft | 410 kts | 311° |
| 2026-05-01 13:24 | 31.23321 | 29.92527 | 39946 ft | 416 kts | 317° |
| 2026-05-01 13:24 | 31.25780 | 29.90654 | 39987 ft | 427 kts | 325° |
| 2026-05-01 13:25 | 31.31016 | 29.87431 | 39968 ft | 424 kts | 325° |
| 2026-05-01 13:25 | 31.36224 | 29.84173 | 39971 ft | 425 kts | 325° |
| 2026-05-01 13:26 | 31.41444 | 29.80900 | 39967 ft | 425 kts | 325° |
| 2026-05-01 13:26 | 31.46646 | 29.77636 | 39971 ft | 425 kts | 325° |
| 2026-05-01 13:27 | 31.51864 | 29.74360 | 39964 ft | 424 kts | 325° |
| 2026-05-01 13:27 | 31.59664 | 29.69453 | 39973 ft | 424 kts | 325° |
| 2026-05-01 13:28 | 31.67428 | 29.64560 | 39970 ft | 424 kts | 325° |
| 2026-05-01 13:29 | 31.77837 | 29.57985 | 39968 ft | 425 kts | 325° |
| 2026-05-01 13:31 | 31.93478 | 29.48074 | 39986 ft | 425 kts | 325° |
| 2026-05-01 13:32 | 32.06484 | 29.39803 | 39975 ft | 425 kts | 324° |
| 2026-05-01 13:33 | 32.19482 | 29.31511 | 39971 ft | 425 kts | 324° |
| 2026-05-01 13:34 | 32.29882 | 29.24850 | 39974 ft | 425 kts | 324° |
| 2026-05-01 13:35 | 32.37681 | 29.19843 | 39962 ft | 425 kts | 324° |
| 2026-05-01 13:36 | 32.45468 | 29.14833 | 39958 ft | 425 kts | 324° |
| 2026-05-01 13:36 | 32.53255 | 29.09813 | 39974 ft | 425 kts | 324° |
| 2026-05-01 13:37 | 32.57569 | 29.07028 | 39979 ft | 424 kts | 324° |
| 2026-05-01 13:37 | 32.63631 | 29.03109 | 39982 ft | 424 kts | 324° |
| 2026-05-01 13:38 | 32.71407 | 28.98073 | 39962 ft | 425 kts | 324° |
| 2026-05-01 13:39 | 32.76597 | 28.94707 | 39973 ft | 425 kts | 324° |
| 2026-05-01 13:39 | 32.81792 | 28.91333 | 39971 ft | 425 kts | 324° |
| 2026-05-01 13:40 | 32.86976 | 28.87961 | 39970 ft | 425 kts | 324° |
| 2026-05-01 13:40 | 32.92165 | 28.84581 | 39968 ft | 425 kts | 324° |
| 2026-05-01 13:41 | 32.97353 | 28.81197 | 39976 ft | 426 kts | 324° |
| 2026-05-01 13:41 | 33.02542 | 28.77809 | 39967 ft | 426 kts | 324° |
| 2026-05-01 13:42 | 33.07735 | 28.74413 | 39967 ft | 425 kts | 324° |
| 2026-05-01 13:42 | 33.12890 | 28.71038 | 39964 ft | 425 kts | 324° |
| 2026-05-01 13:43 | 33.18078 | 28.67636 | 39962 ft | 425 kts | 324° |
| 2026-05-01 13:43 | 33.23263 | 28.64232 | 39965 ft | 425 kts | 324° |
| 2026-05-01 13:44 | 33.28447 | 28.60823 | 39969 ft | 426 kts | 324° |
| 2026-05-01 13:44 | 33.33642 | 28.57403 | 39968 ft | 425 kts | 324° |
| 2026-05-01 13:45 | 33.38820 | 28.53989 | 39967 ft | 425 kts | 324° |
| 2026-05-01 13:45 | 33.44003 | 28.50567 | 39966 ft | 425 kts | 324° |
| 2026-05-01 13:46 | 33.49179 | 28.47145 | 39964 ft | 425 kts | 324° |
| 2026-05-01 13:46 | 33.53483 | 28.44296 | 39965 ft | 426 kts | 324° |
| 2026-05-01 13:47 | 33.58660 | 28.40864 | 39965 ft | 426 kts | 324° |
| 2026-05-01 13:47 | 33.63848 | 28.37421 | 39964 ft | 426 kts | 324° |
| 2026-05-01 13:48 | 33.69024 | 28.33981 | 39971 ft | 426 kts | 324° |
| 2026-05-01 13:48 | 33.74210 | 28.30530 | 39968 ft | 426 kts | 324° |
| 2026-05-01 13:49 | 33.79391 | 28.27079 | 39969 ft | 425 kts | 323° |
| 2026-05-01 13:49 | 33.84656 | 28.23777 | 39970 ft | 429 kts | 326° |
| 2026-05-01 13:50 | 33.90010 | 28.20635 | 39968 ft | 428 kts | 326° |
| 2026-05-01 13:50 | 33.95389 | 28.17432 | 39967 ft | 428 kts | 326° |
| 2026-05-01 13:51 | 34.00716 | 28.14232 | 39965 ft | 428 kts | 326° |
| 2026-05-01 13:51 | 34.06037 | 28.11027 | 39952 ft | 428 kts | 326° |
| 2026-05-01 13:52 | 34.11323 | 28.07838 | 39962 ft | 428 kts | 326° |
| 2026-05-01 13:52 | 34.16692 | 28.04594 | 39967 ft | 428 kts | 325° |
| 2026-05-01 13:53 | 34.21989 | 28.01390 | 39971 ft | 429 kts | 325° |
| 2026-05-01 13:53 | 34.29987 | 27.96543 | 39968 ft | 429 kts | 325° |
| 2026-05-01 13:54 | 34.35321 | 27.93304 | 39992 ft | 429 kts | 325° |
| 2026-05-01 13:54 | 34.40698 | 27.90035 | 39970 ft | 430 kts | 325° |
| 2026-05-01 13:55 | 34.46003 | 27.86805 | 39969 ft | 429 kts | 325° |
| 2026-05-01 13:55 | 34.51339 | 27.83551 | 39967 ft | 429 kts | 325° |
| 2026-05-01 13:56 | 34.56701 | 27.80277 | 39966 ft | 429 kts | 325° |
| 2026-05-01 13:56 | 34.61990 | 27.77042 | 39994 ft | 429 kts | 325° |
| 2026-05-01 13:57 | 34.67325 | 27.73774 | 39973 ft | 429 kts | 325° |
| 2026-05-01 13:57 | 34.72663 | 27.70500 | 39961 ft | 429 kts | 325° |
| 2026-05-01 13:58 | 34.77990 | 27.67229 | 39960 ft | 429 kts | 325° |
| 2026-05-01 13:58 | 34.83309 | 27.63957 | 39960 ft | 429 kts | 325° |
| 2026-05-01 13:59 | 34.88640 | 27.60673 | 39989 ft | 429 kts | 325° |
| 2026-05-01 13:59 | 34.93972 | 27.57383 | 39967 ft | 430 kts | 325° |
| 2026-05-01 14:00 | 34.99312 | 27.54084 | 39974 ft | 430 kts | 325° |
| 2026-05-01 14:00 | 35.04648 | 27.50783 | 39972 ft | 430 kts | 325° |
| 2026-05-01 14:01 | 35.09984 | 27.47477 | 39970 ft | 430 kts | 325° |
| 2026-05-01 14:01 | 35.15321 | 27.44165 | 39978 ft | 430 kts | 324° |
| 2026-05-01 14:02 | 35.20661 | 27.40846 | 39977 ft | 430 kts | 324° |
| 2026-05-01 14:02 | 35.25994 | 27.37527 | 39976 ft | 430 kts | 324° |
| 2026-05-01 14:03 | 35.31292 | 27.34225 | 39978 ft | 430 kts | 324° |
| 2026-05-01 14:03 | 35.36627 | 27.30895 | 39978 ft | 430 kts | 324° |
| 2026-05-01 14:04 | 35.41952 | 27.27565 | 39995 ft | 430 kts | 324° |
| 2026-05-01 14:04 | 35.47286 | 27.24225 | 39976 ft | 431 kts | 324° |
| 2026-05-01 14:05 | 35.52622 | 27.20881 | 39977 ft | 430 kts | 324° |
| 2026-05-01 14:05 | 35.57943 | 27.17539 | 39979 ft | 430 kts | 324° |
| 2026-05-01 14:06 | 35.63255 | 27.14203 | 39984 ft | 428 kts | 324° |
| 2026-05-01 14:06 | 35.68556 | 27.10859 | 40015 ft | 429 kts | 324° |
| 2026-05-01 14:07 | 35.73883 | 27.07496 | 39987 ft | 431 kts | 324° |
| 2026-05-01 14:08 | 35.81897 | 27.02432 | 39985 ft | 432 kts | 324° |
| 2026-05-01 14:08 | 35.87252 | 26.99041 | 40001 ft | 432 kts | 324° |
| 2026-05-01 14:09 | 35.92598 | 26.95651 | 40001 ft | 433 kts | 324° |
| 2026-05-01 14:09 | 35.97957 | 26.92247 | 40005 ft | 433 kts | 324° |
| 2026-05-01 14:10 | 36.03317 | 26.88838 | 40006 ft | 433 kts | 324° |
| 2026-05-01 14:10 | 36.08668 | 26.85429 | 39989 ft | 433 kts | 324° |
| 2026-05-01 14:11 | 36.14016 | 26.82016 | 39992 ft | 432 kts | 324° |
| 2026-05-01 14:11 | 36.22018 | 26.76900 | 39998 ft | 433 kts | 324° |
| 2026-05-01 14:12 | 36.27372 | 26.73469 | 39991 ft | 433 kts | 324° |
| 2026-05-01 14:12 | 36.32728 | 26.70033 | 39995 ft | 434 kts | 324° |
| 2026-05-01 14:13 | 36.37180 | 26.67173 | 39992 ft | 434 kts | 324° |
| 2026-05-01 14:13 | 36.43447 | 26.63140 | 39999 ft | 434 kts | 324° |
| 2026-05-01 14:14 | 36.48819 | 26.59677 | 39998 ft | 436 kts | 324° |
| 2026-05-01 14:14 | 36.54199 | 26.56203 | 40008 ft | 436 kts | 324° |
| 2026-05-01 14:15 | 36.59593 | 26.52715 | 40004 ft | 437 kts | 324° |
| 2026-05-01 14:15 | 36.64987 | 26.49221 | 40011 ft | 438 kts | 324° |
| 2026-05-01 14:16 | 36.70395 | 26.45714 | 40013 ft | 438 kts | 324° |
| 2026-05-01 14:16 | 36.75798 | 26.42202 | 39995 ft | 439 kts | 324° |
| 2026-05-01 14:17 | 36.81220 | 26.38675 | 39998 ft | 439 kts | 324° |
| 2026-05-01 14:17 | 36.86641 | 26.35142 | 40008 ft | 440 kts | 324° |
| 2026-05-01 14:18 | 36.92056 | 26.31606 | 40011 ft | 440 kts | 324° |
| 2026-05-01 14:18 | 36.96565 | 26.28659 | 40034 ft | 439 kts | 324° |
| 2026-05-01 14:19 | 37.02897 | 26.24511 | 40019 ft | 441 kts | 324° |
| 2026-05-01 14:19 | 37.08332 | 26.20945 | 40017 ft | 441 kts | 324° |
| 2026-05-01 14:20 | 37.16484 | 26.15587 | 40022 ft | 441 kts | 324° |
| 2026-05-01 14:21 | 37.21915 | 26.12009 | 40026 ft | 441 kts | 324° |
| 2026-05-01 14:21 | 37.27353 | 26.08420 | 40021 ft | 442 kts | 324° |
| 2026-05-01 14:22 | 37.35536 | 26.03010 | 40033 ft | 443 kts | 324° |
| 2026-05-01 14:22 | 37.40985 | 25.99400 | 40043 ft | 443 kts | 324° |
| 2026-05-01 14:23 | 37.46438 | 25.95782 | 40042 ft | 443 kts | 324° |
| 2026-05-01 14:23 | 37.51893 | 25.92159 | 40052 ft | 444 kts | 324° |
| 2026-05-01 14:24 | 37.57364 | 25.88519 | 40047 ft | 444 kts | 324° |
| 2026-05-01 14:24 | 37.62604 | 25.84596 | 40048 ft | 440 kts | 321° |
| 2026-05-01 14:25 | 37.67821 | 25.80552 | 40049 ft | 440 kts | 321° |
| 2026-05-01 14:25 | 37.73079 | 25.76489 | 40060 ft | 440 kts | 321° |
| 2026-05-01 14:26 | 37.80872 | 25.70431 | 40059 ft | 440 kts | 321° |
| 2026-05-01 14:27 | 37.86086 | 25.66364 | 40064 ft | 440 kts | 321° |
| 2026-05-01 14:27 | 37.91303 | 25.62286 | 40065 ft | 441 kts | 321° |
| 2026-05-01 14:28 | 37.99122 | 25.56162 | 40066 ft | 441 kts | 321° |
| 2026-05-01 14:28 | 38.04340 | 25.52066 | 40052 ft | 442 kts | 321° |
| 2026-05-01 14:29 | 38.09569 | 25.47955 | 40068 ft | 442 kts | 321° |
| 2026-05-01 14:30 | 38.19146 | 25.40408 | 40081 ft | 443 kts | 321° |
| 2026-05-01 14:31 | 38.26989 | 25.34210 | 40083 ft | 443 kts | 321° |
| 2026-05-01 14:31 | 38.32219 | 25.30065 | 40076 ft | 445 kts | 321° |
| 2026-05-01 14:32 | 38.37495 | 25.25880 | 40093 ft | 445 kts | 321° |
| 2026-05-01 14:32 | 38.42758 | 25.21698 | 40097 ft | 446 kts | 321° |
| 2026-05-01 14:33 | 38.48018 | 25.17510 | 40103 ft | 446 kts | 321° |
| 2026-05-01 14:33 | 38.53279 | 25.13314 | 40114 ft | 446 kts | 321° |
| 2026-05-01 14:34 | 38.58557 | 25.09096 | 40107 ft | 448 kts | 321° |
| 2026-05-01 14:34 | 38.63838 | 25.04870 | 40111 ft | 448 kts | 321° |
| 2026-05-01 14:35 | 38.69123 | 25.00632 | 40136 ft | 449 kts | 321° |
| 2026-05-01 14:35 | 38.74421 | 24.96377 | 40122 ft | 450 kts | 321° |
| 2026-05-01 14:36 | 38.79722 | 24.92112 | 40125 ft | 450 kts | 321° |
| 2026-05-01 14:36 | 38.85033 | 24.87830 | 40118 ft | 452 kts | 321° |
| 2026-05-01 14:37 | 38.90362 | 24.83528 | 40125 ft | 452 kts | 321° |
| 2026-05-01 14:37 | 38.95691 | 24.79217 | 40131 ft | 453 kts | 321° |
| 2026-05-01 14:38 | 39.01021 | 24.74897 | 40162 ft | 453 kts | 321° |
| 2026-05-01 14:38 | 39.06357 | 24.70566 | 40188 ft | 454 kts | 321° |
| 2026-05-01 14:39 | 39.11711 | 24.66208 | 40140 ft | 455 kts | 322° |
| 2026-05-01 14:39 | 39.17032 | 24.61873 | 40152 ft | 456 kts | 322° |
| 2026-05-01 14:40 | 39.22393 | 24.57498 | 40156 ft | 456 kts | 322° |
| 2026-05-01 14:40 | 39.27755 | 24.53112 | 40159 ft | 457 kts | 322° |
| 2026-05-01 14:41 | 39.33119 | 24.48717 | 40162 ft | 457 kts | 322° |
| 2026-05-01 14:41 | 39.38494 | 24.44305 | 40160 ft | 458 kts | 322° |
| 2026-05-01 14:42 | 39.43867 | 24.39887 | 40163 ft | 458 kts | 322° |
| 2026-05-01 14:42 | 39.49251 | 24.35450 | 40164 ft | 459 kts | 322° |
| 2026-05-01 14:43 | 39.54634 | 24.31007 | 40168 ft | 459 kts | 322° |
| 2026-05-01 14:43 | 39.60035 | 24.26540 | 40162 ft | 461 kts | 322° |
| 2026-05-01 14:44 | 39.65439 | 24.22063 | 40171 ft | 461 kts | 322° |
| 2026-05-01 14:44 | 39.73554 | 24.15324 | 40178 ft | 462 kts | 322° |
| 2026-05-01 14:45 | 39.81682 | 24.08556 | 40187 ft | 463 kts | 322° |
| 2026-05-01 14:46 | 39.87104 | 24.04027 | 40179 ft | 463 kts | 323° |
| 2026-05-01 14:46 | 39.95248 | 23.97214 | 40184 ft | 464 kts | 323° |
| 2026-05-01 14:47 | 40.00671 | 23.92665 | 40188 ft | 464 kts | 323° |
| 2026-05-01 14:48 | 40.08816 | 23.85815 | 40207 ft | 465 kts | 323° |
| 2026-05-01 14:48 | 40.16972 | 23.78938 | 40196 ft | 465 kts | 323° |
| 2026-05-01 14:49 | 40.27840 | 23.69743 | 40207 ft | 465 kts | 323° |
| 2026-05-01 14:50 | 40.38687 | 23.60530 | 40212 ft | 465 kts | 323° |
| 2026-05-01 14:51 | 40.46818 | 23.53599 | 40212 ft | 465 kts | 323° |
| 2026-05-01 14:52 | 40.54950 | 23.46648 | 40220 ft | 465 kts | 323° |
| 2026-05-01 14:53 | 40.63085 | 23.39672 | 40222 ft | 465 kts | 323° |
| 2026-05-01 14:53 | 40.68501 | 23.35018 | 40227 ft | 465 kts | 323° |
| 2026-05-01 14:54 | 40.73917 | 23.30353 | 40228 ft | 465 kts | 323° |
| 2026-05-01 14:54 | 40.79302 | 23.25708 | 40231 ft | 465 kts | 323° |
| 2026-05-01 14:55 | 40.84753 | 23.20993 | 40233 ft | 466 kts | 323° |
| 2026-05-01 14:55 | 40.90177 | 23.16296 | 40232 ft | 466 kts | 323° |
| 2026-05-01 14:56 | 40.95591 | 23.11596 | 40224 ft | 466 kts | 323° |
| 2026-05-01 14:56 | 41.01005 | 23.06891 | 40225 ft | 465 kts | 323° |
| 2026-05-01 14:57 | 41.06346 | 23.02056 | 40225 ft | 463 kts | 319° |
| 2026-05-01 14:57 | 41.13435 | 22.93431 | 40223 ft | 460 kts | 310° |
| 2026-05-01 14:58 | 41.17579 | 22.86989 | 40221 ft | 459 kts | 308° |
| 2026-05-01 14:58 | 41.21701 | 22.80578 | 40218 ft | 459 kts | 308° |
| 2026-05-01 14:59 | 41.25829 | 22.74118 | 40215 ft | 459 kts | 309° |
| 2026-05-01 14:59 | 41.30137 | 22.67837 | 40210 ft | 460 kts | 311° |
| 2026-05-01 15:00 | 41.36618 | 22.58441 | 40208 ft | 460 kts | 310° |
| 2026-05-01 15:01 | 41.40929 | 22.52116 | 40205 ft | 461 kts | 310° |
| 2026-05-01 15:01 | 41.45230 | 22.45785 | 40208 ft | 461 kts | 310° |
| 2026-05-01 15:02 | 41.49530 | 22.39445 | 40208 ft | 462 kts | 310° |
| 2026-05-01 15:02 | 41.53833 | 22.33085 | 40209 ft | 462 kts | 310° |
| 2026-05-01 15:03 | 41.58132 | 22.26716 | 40214 ft | 462 kts | 310° |
| 2026-05-01 15:03 | 41.62436 | 22.20328 | 40214 ft | 462 kts | 310° |
| 2026-05-01 15:04 | 41.66735 | 22.13932 | 40200 ft | 463 kts | 310° |
| 2026-05-01 15:04 | 41.71042 | 22.07512 | 40206 ft | 464 kts | 310° |
| 2026-05-01 15:05 | 41.75339 | 22.01094 | 40214 ft | 464 kts | 310° |
| 2026-05-01 15:05 | 41.79647 | 21.94644 | 40226 ft | 465 kts | 310° |
| 2026-05-01 15:06 | 41.83962 | 21.88169 | 40235 ft | 465 kts | 310° |
| 2026-05-01 15:06 | 41.88271 | 21.81690 | 40239 ft | 465 kts | 310° |
| 2026-05-01 15:07 | 41.92571 | 21.75208 | 40235 ft | 466 kts | 311° |
| 2026-05-01 15:07 | 41.96887 | 21.68690 | 40235 ft | 467 kts | 310° |
| 2026-05-01 15:08 | 42.01197 | 21.62165 | 40239 ft | 467 kts | 310° |
| 2026-05-01 15:08 | 42.05510 | 21.55622 | 40233 ft | 467 kts | 310° |
| 2026-05-01 15:09 | 42.09827 | 21.49059 | 40235 ft | 468 kts | 310° |
| 2026-05-01 15:09 | 42.14136 | 21.42493 | 40245 ft | 468 kts | 310° |
| 2026-05-01 15:10 | 42.18420 | 21.35891 | 40253 ft | 468 kts | 309° |
| 2026-05-01 15:10 | 42.24727 | 21.25829 | 40266 ft | 469 kts | 309° |
| 2026-05-01 15:11 | 42.31050 | 21.15758 | 40270 ft | 469 kts | 309° |
| 2026-05-01 15:12 | 42.35272 | 21.09022 | 40243 ft | 469 kts | 310° |
| 2026-05-01 15:12 | 42.41595 | 20.98905 | 40244 ft | 470 kts | 310° |
| 2026-05-01 15:14 | 42.51436 | 20.83089 | 40249 ft | 472 kts | 310° |
| 2026-05-01 15:14 | 42.57803 | 20.72811 | 40242 ft | 473 kts | 310° |
| 2026-05-01 15:15 | 42.66233 | 20.59152 | 40258 ft | 473 kts | 310° |
| 2026-05-01 15:16 | 42.74667 | 20.45419 | 40243 ft | 473 kts | 310° |
| 2026-05-01 15:18 | 42.85502 | 20.28615 | 40251 ft | 472 kts | 319° |
| 2026-05-01 15:19 | 42.95356 | 20.16769 | 40253 ft | 472 kts | 319° |
| 2026-05-01 15:19 | 43.02736 | 20.07855 | 40260 ft | 472 kts | 319° |
| 2026-05-01 15:20 | 43.10119 | 19.98914 | 40258 ft | 473 kts | 319° |
| 2026-05-01 15:21 | 43.15029 | 19.92951 | 40259 ft | 472 kts | 319° |
| 2026-05-01 15:21 | 43.19941 | 19.86972 | 40255 ft | 472 kts | 319° |
| 2026-05-01 15:22 | 43.27263 | 19.78033 | 40239 ft | 472 kts | 319° |
| 2026-05-01 15:22 | 43.32164 | 19.72034 | 40250 ft | 472 kts | 319° |
| 2026-05-01 15:23 | 43.37065 | 19.66022 | 40256 ft | 472 kts | 319° |
| 2026-05-01 15:23 | 43.41970 | 19.59990 | 40258 ft | 473 kts | 319° |
| 2026-05-01 15:24 | 43.46876 | 19.53943 | 40262 ft | 474 kts | 320° |
| 2026-05-01 15:24 | 43.51785 | 19.47878 | 40280 ft | 474 kts | 320° |
| 2026-05-01 15:25 | 43.56698 | 19.41797 | 40283 ft | 475 kts | 320° |
| 2026-05-01 15:25 | 43.61607 | 19.35705 | 40281 ft | 474 kts | 320° |
| 2026-05-01 15:26 | 43.66503 | 19.29615 | 40274 ft | 473 kts | 320° |
| 2026-05-01 15:26 | 43.71385 | 19.23528 | 40272 ft | 471 kts | 320° |
| 2026-05-01 15:27 | 43.76239 | 19.17461 | 40262 ft | 471 kts | 320° |
| 2026-05-01 15:28 | 43.83521 | 19.08340 | 40263 ft | 471 kts | 320° |
| 2026-05-01 15:28 | 43.88381 | 19.02233 | 40269 ft | 471 kts | 320° |
| 2026-05-01 15:29 | 43.95662 | 18.93058 | 40281 ft | 472 kts | 320° |
| 2026-05-01 15:30 | 44.05371 | 18.80771 | 40284 ft | 473 kts | 320° |
| 2026-05-01 15:31 | 44.19907 | 18.62272 | 40295 ft | 473 kts | 320° |
| 2026-05-01 15:32 | 44.29624 | 18.49832 | 40295 ft | 474 kts | 320° |
| 2026-05-01 15:34 | 44.44197 | 18.31066 | 40300 ft | 475 kts | 320° |